createdAt,value
2022-09-02T00:01:39.526Z,20.40
2022-09-02T00:04:10.536Z,20.30
2022-09-02T00:06:39.107Z,20.30
2022-09-02T00:09:08.917Z,20.30
2022-09-02T00:11:40.697Z,20.30
2022-09-02T00:14:14.039Z,20.30
2022-09-02T00:16:51.460Z,20.30
2022-09-02T00:19:21.046Z,20.30
2022-09-02T00:21:50.093Z,20.20
2022-09-02T00:24:18.538Z,20.20
2022-09-02T00:26:47.014Z,20.10
2022-09-02T00:29:16.704Z,20.00
2022-09-02T00:31:46.297Z,20.00
2022-09-02T00:34:15.262Z,20.00
2022-09-02T00:36:43.689Z,20.00
2022-09-02T00:39:11.977Z,19.90
2022-09-02T00:41:43.266Z,19.90
2022-09-02T00:44:13.403Z,19.80
2022-09-02T00:46:43.482Z,19.70
2022-09-02T00:49:15.815Z,19.70
2022-09-02T00:51:47.424Z,19.70
2022-09-02T00:54:21.007Z,19.70
2022-09-02T00:56:50.720Z,19.70
2022-09-02T00:59:28.658Z,19.60
2022-09-02T01:01:58.722Z,19.60
2022-09-02T01:04:27.572Z,19.50
2022-09-02T01:06:56.032Z,19.50
2022-09-02T01:09:24.325Z,19.40
2022-09-02T01:11:55.526Z,19.40
2022-09-02T01:14:24.124Z,19.30
2022-09-02T01:17:00.984Z,19.30
2022-09-02T01:19:33.507Z,19.30
2022-09-02T01:22:03.348Z,19.30
2022-09-02T01:24:34.690Z,19.20
2022-09-02T01:27:02.919Z,19.20
2022-09-02T01:29:31.020Z,19.20
2022-09-02T01:32:00.731Z,19.10
2022-09-02T01:34:29.131Z,19.10
2022-09-02T01:36:57.230Z,19.00
2022-09-02T01:39:26.865Z,19.10
2022-09-02T01:41:55.018Z,19.00
2022-09-02T01:44:24.229Z,19.00
2022-09-02T01:46:52.413Z,19.10
2022-09-02T01:49:20.974Z,19.00
2022-09-02T01:51:49.110Z,19.00
2022-09-02T01:54:17.564Z,18.90
2022-09-02T01:56:47.257Z,18.80
2022-09-02T01:59:17.859Z,18.80
2022-09-02T02:01:46.917Z,18.90
2022-09-02T02:04:17.021Z,18.80
2022-09-02T02:06:48.771Z,18.90
2022-09-02T02:09:21.087Z,18.90
2022-09-02T02:11:51.774Z,18.90
2022-09-02T02:14:20.353Z,18.80
2022-09-02T02:16:51.353Z,18.80
2022-09-02T02:19:19.662Z,18.80
2022-09-02T02:21:49.439Z,18.80
2022-09-02T02:24:17.542Z,18.70
2022-09-02T02:26:45.655Z,18.70
2022-09-02T02:29:15.289Z,18.70
2022-09-02T02:31:45.317Z,18.60
2022-09-02T02:34:13.989Z,18.70
2022-09-02T02:36:43.457Z,18.60
2022-09-02T02:39:12.702Z,18.50
2022-09-02T02:41:44.834Z,18.50
2022-09-02T02:44:15.465Z,18.60
2022-09-02T02:46:44.512Z,18.60
2022-09-02T02:49:13.357Z,18.60
2022-09-02T02:51:42.946Z,18.50
2022-09-02T02:54:14.283Z,18.50
2022-09-02T02:56:42.942Z,18.50
2022-09-02T02:59:11.128Z,18.50
2022-09-02T03:01:40.687Z,18.50
2022-09-02T03:04:09.452Z,18.50
2022-09-02T03:06:37.805Z,18.40
2022-09-02T03:09:06.866Z,18.50
2022-09-02T03:11:37.368Z,18.40
2022-09-02T03:14:05.979Z,18.40
2022-09-02T03:16:36.266Z,18.40
2022-09-02T03:19:06.159Z,18.30
2022-09-02T03:21:39.210Z,18.30
2022-09-02T03:24:09.547Z,18.30
2022-09-02T03:26:37.905Z,18.30
2022-09-02T03:29:07.288Z,18.20
2022-09-02T03:31:35.797Z,18.20
2022-09-02T03:34:05.883Z,18.30
2022-09-02T03:36:39.721Z,18.20
2022-09-02T03:39:11.726Z,18.20
2022-09-02T03:41:42.434Z,18.30
2022-09-02T03:44:12.453Z,18.20
2022-09-02T03:46:41.908Z,18.20
2022-09-02T03:49:11.514Z,18.20
2022-09-02T03:51:42.284Z,18.20
2022-09-02T03:54:12.329Z,18.20
2022-09-02T03:56:41.947Z,18.20
2022-09-02T03:59:11.076Z,18.20
2022-09-02T04:01:39.795Z,18.20
2022-09-02T04:04:08.871Z,18.20
2022-09-02T04:06:40.096Z,18.20
2022-09-02T04:09:08.415Z,18.20
2022-09-02T04:11:42.546Z,18.20
2022-09-02T04:14:11.748Z,18.10
2022-09-02T04:17:35.139Z,18.10
2022-09-02T04:21:11.760Z,18.10
2022-09-02T04:23:43.221Z,18.10
2022-09-02T04:26:14.054Z,18.10
2022-09-02T04:28:42.795Z,18.10
2022-09-02T04:31:16.830Z,18.10
2022-09-02T04:33:46.047Z,18.10
2022-09-02T04:36:18.341Z,18.10
2022-09-02T04:38:50.057Z,18.20
2022-09-02T04:41:22.832Z,18.20
2022-09-02T04:44:01.188Z,18.20
2022-09-02T04:46:35.013Z,18.20
2022-09-02T04:49:06.449Z,18.10
2022-09-02T04:51:35.289Z,18.10
2022-09-02T04:54:07.913Z,18.10
2022-09-02T04:56:38.272Z,18.10
2022-09-02T04:59:07.212Z,18.10
2022-09-02T05:01:37.390Z,18.10
2022-09-02T05:04:11.464Z,18.10
2022-09-02T05:06:44.879Z,18.20
2022-09-02T05:09:19.010Z,18.10
2022-09-02T05:11:57.255Z,18.20
2022-09-02T05:14:28.429Z,18.20
2022-09-02T05:17:06.651Z,18.20
2022-09-02T05:19:37.403Z,18.20
2022-09-02T05:22:05.869Z,18.20
2022-09-02T05:24:39.665Z,18.30
2022-09-02T05:27:11.036Z,18.30
2022-09-02T05:29:42.022Z,18.40
2022-09-02T05:32:12.667Z,18.40
2022-09-02T05:34:41.490Z,18.40
2022-09-02T05:37:10.590Z,18.60
2022-09-02T05:39:40.070Z,18.60
2022-09-02T05:42:09.712Z,18.70
2022-09-02T05:44:39.013Z,18.70
2022-09-02T05:47:08.957Z,18.70
2022-09-02T05:49:38.699Z,18.80
2022-09-02T05:52:13.944Z,18.90
2022-09-02T05:54:49.236Z,19.00
2022-09-02T05:57:20.165Z,19.10
2022-09-02T06:00:00.760Z,19.10
2022-09-02T06:02:41.991Z,19.20
2022-09-02T06:05:14.841Z,19.30
2022-09-02T06:07:49.000Z,19.30
2022-09-02T06:10:21.085Z,19.40
2022-09-02T06:12:50.463Z,19.50
2022-09-02T06:15:21.973Z,19.70
2022-09-02T06:17:51.049Z,19.80
2022-09-02T06:20:19.273Z,20.00
2022-09-02T06:22:49.077Z,20.00
2022-09-02T06:25:22.311Z,20.10
2022-09-02T06:27:50.528Z,20.20
2022-09-02T06:30:19.624Z,20.30
2022-09-02T06:32:50.675Z,20.50
2022-09-02T06:35:20.293Z,20.60
2022-09-02T06:37:48.690Z,20.70
2022-09-02T06:40:19.505Z,20.80
2022-09-02T06:42:50.399Z,20.90
2022-09-02T06:45:31.247Z,20.90
2022-09-02T06:48:02.254Z,20.90
2022-09-02T06:50:39.781Z,20.80
2022-09-02T06:53:09.250Z,20.80
2022-09-02T06:55:42.603Z,20.80
2022-09-02T06:58:13.994Z,20.70
2022-09-02T07:00:43.514Z,20.70
2022-09-02T07:03:30.836Z,20.70
2022-09-02T07:06:04.445Z,20.70
2022-09-02T07:08:32.595Z,20.60
2022-09-02T07:11:02.949Z,20.60
2022-09-02T07:13:33.566Z,20.60
2022-09-02T07:16:03.245Z,20.70
2022-09-02T07:18:31.669Z,20.80
2022-09-02T07:20:59.797Z,20.80
2022-09-02T07:23:28.406Z,20.90
2022-09-02T07:25:57.053Z,20.80
2022-09-02T07:28:27.494Z,20.80
2022-09-02T07:30:59.793Z,20.90
2022-09-02T07:33:29.055Z,21.10
2022-09-02T07:35:57.363Z,21.10
2022-09-02T07:38:26.922Z,21.20
2022-09-02T07:40:56.835Z,21.20
2022-09-02T07:43:28.744Z,21.20
2022-09-02T07:46:00.723Z,21.20
2022-09-02T07:48:31.233Z,21.30
2022-09-02T07:51:00.035Z,21.20
2022-09-02T07:53:31.815Z,21.10
2022-09-02T07:56:01.968Z,21.10
2022-09-02T07:58:32.409Z,21.00
2022-09-02T08:01:03.562Z,21.00
2022-09-02T08:03:32.019Z,21.00
2022-09-02T08:06:00.796Z,21.00
2022-09-02T08:08:29.127Z,21.10
2022-09-02T08:10:57.254Z,21.10
2022-09-02T08:13:27.045Z,21.20
2022-09-02T08:15:56.611Z,21.30
2022-09-02T08:18:26.552Z,21.30
2022-09-02T08:20:55.169Z,21.40
2022-09-02T08:23:36.852Z,21.40
2022-09-02T08:26:06.537Z,21.50
2022-09-02T08:28:35.086Z,21.70
2022-09-02T08:31:06.974Z,21.80
2022-09-02T08:33:36.543Z,21.80
2022-09-02T08:36:08.346Z,21.80
2022-09-02T08:38:36.681Z,21.80
2022-09-02T08:41:12.487Z,21.90
2022-09-02T08:43:42.598Z,22.00
2022-09-02T08:46:15.134Z,22.10
2022-09-02T08:48:50.601Z,22.10
2022-09-02T08:51:23.770Z,22.20
2022-09-02T08:53:55.104Z,22.30
2022-09-02T08:56:23.146Z,22.30
2022-09-02T08:58:56.387Z,22.40
2022-09-02T09:01:36.869Z,22.50
2022-09-02T09:04:18.660Z,22.60
2022-09-02T09:07:05.541Z,22.60
2022-09-02T09:09:43.986Z,22.70
2022-09-02T09:12:23.021Z,22.70
2022-09-02T09:14:59.381Z,22.80
2022-09-02T09:17:31.729Z,22.80
2022-09-02T09:20:04.556Z,23.00
2022-09-02T09:22:37.264Z,23.10
2022-09-02T09:25:11.448Z,23.10
2022-09-02T09:27:39.574Z,23.10
2022-09-02T09:30:14.296Z,23.10
2022-09-02T09:32:47.316Z,23.10
2022-09-02T09:35:18.686Z,23.10
2022-09-02T09:37:48.940Z,23.20
2022-09-02T09:40:27.410Z,23.20
2022-09-02T09:42:58.001Z,23.30
2022-09-02T09:45:33.683Z,23.30
2022-09-02T09:48:22.927Z,23.40
2022-09-02T09:51:12.869Z,23.40
2022-09-02T09:53:41.593Z,23.50
2022-09-02T09:56:27.161Z,23.50
2022-09-02T09:58:55.323Z,23.50
2022-09-02T10:01:25.979Z,23.60
2022-09-02T10:03:56.922Z,23.70
2022-09-02T10:06:38.299Z,23.70
2022-09-02T10:09:16.964Z,23.80
2022-09-02T10:11:58.006Z,23.80
2022-09-02T10:14:29.560Z,23.90
2022-09-02T10:17:07.503Z,23.90
2022-09-02T10:19:40.791Z,24.00
2022-09-02T10:22:48.528Z,24.10
2022-09-02T10:25:30.609Z,24.30
2022-09-02T10:28:07.549Z,24.30
2022-09-02T10:30:42.501Z,24.30
2022-09-02T10:33:23.636Z,24.40
2022-09-02T10:35:59.665Z,24.50
2022-09-02T10:38:48.002Z,24.60
2022-09-02T10:44:32.806Z,24.60
2022-09-02T10:47:02.637Z,24.60
2022-09-02T10:50:02.416Z,24.60
2022-09-02T10:52:52.879Z,24.50
2022-09-02T10:55:28.883Z,24.50
2022-09-02T10:58:02.288Z,24.50
2022-09-02T11:00:33.262Z,24.60
2022-09-02T11:03:12.751Z,24.60
2022-09-02T11:05:48.826Z,24.70
2022-09-02T11:08:29.594Z,24.80
2022-09-02T11:11:08.946Z,24.80
2022-09-02T11:13:44.547Z,24.90
2022-09-02T11:16:20.284Z,24.90
2022-09-02T11:18:58.073Z,24.80
2022-09-02T11:21:41.410Z,24.80
2022-09-02T11:24:15.446Z,24.80
2022-09-02T11:26:53.389Z,24.70
2022-09-02T11:29:29.425Z,24.70
2022-09-02T11:32:06.767Z,24.70
2022-09-02T11:34:42.503Z,24.80
2022-09-02T11:37:15.700Z,24.80
2022-09-02T11:39:56.498Z,24.80
2022-09-02T11:43:02.570Z,24.90
2022-09-02T11:45:57.050Z,24.90
2022-09-02T11:48:58.651Z,24.70
2022-09-02T11:51:38.713Z,24.70
2022-09-02T11:54:10.572Z,24.80
2022-09-02T11:56:47.264Z,24.80
2022-09-02T11:59:24.415Z,24.80
2022-09-02T12:01:54.304Z,24.70
2022-09-02T12:04:58.721Z,24.80
2022-09-02T12:07:26.439Z,25.00
2022-09-02T12:09:56.938Z,25.10
2022-09-02T12:13:03.086Z,25.20
2022-09-02T12:15:32.755Z,25.30
2022-09-02T12:18:30.992Z,25.40
2022-09-02T12:21:15.969Z,25.40
2022-09-02T12:24:21.105Z,25.40
2022-09-02T12:27:12.115Z,25.60
2022-09-02T12:29:40.171Z,25.80
2022-09-02T12:32:10.281Z,26.00
2022-09-02T12:34:56.651Z,26.10
2022-09-02T12:37:56.034Z,26.20
2022-09-02T12:40:38.552Z,26.20
2022-09-02T12:43:21.020Z,26.10
2022-09-02T12:45:51.002Z,26.30
2022-09-02T12:48:38.143Z,26.40
2022-09-02T12:51:07.175Z,26.60
2022-09-02T12:53:39.220Z,26.70
2022-09-02T12:56:19.465Z,26.80
2022-09-02T12:58:49.852Z,27.00
2022-09-02T13:01:23.026Z,26.90
2022-09-02T13:04:04.004Z,27.00
2022-09-02T13:06:54.554Z,27.00
2022-09-02T13:09:48.959Z,27.20
2022-09-02T13:12:55.971Z,27.20
2022-09-02T13:16:18.689Z,27.30
2022-09-02T13:19:30.463Z,27.50
2022-09-02T13:22:24.996Z,27.60
2022-09-02T13:25:13.294Z,27.60
2022-09-02T13:28:03.735Z,27.80
2022-09-02T13:30:59.262Z,28.00
2022-09-02T13:33:28.100Z,28.00
2022-09-02T13:35:59.685Z,27.90
2022-09-02T13:38:29.495Z,27.90
2022-09-02T13:40:57.906Z,28.00
2022-09-02T13:43:28.153Z,28.00
2022-09-02T13:46:01.763Z,28.10
2022-09-02T13:48:32.316Z,28.30
2022-09-02T13:51:13.604Z,28.30
2022-09-02T13:53:58.937Z,28.30
2022-09-02T13:56:31.640Z,28.30
2022-09-02T13:58:59.672Z,28.70
2022-09-02T14:01:32.204Z,28.90
2022-09-02T14:06:41.828Z,29.10
2022-09-02T14:09:20.286Z,29.20
2022-09-02T14:11:49.587Z,29.30
2022-09-02T14:14:20.752Z,29.60
2022-09-02T14:16:48.851Z,29.50
2022-09-02T14:19:26.324Z,29.80
2022-09-02T14:21:57.844Z,29.60
2022-09-02T14:24:28.303Z,29.10
2022-09-02T14:26:58.009Z,29.20
2022-09-02T14:29:27.278Z,29.30
2022-09-02T14:32:12.625Z,29.50
2022-09-02T14:34:42.907Z,29.30
2022-09-02T14:37:24.484Z,28.80
2022-09-02T14:40:06.123Z,29.30
2022-09-02T14:42:35.322Z,30.50
2022-09-02T14:45:05.695Z,32.20
2022-09-02T14:47:38.950Z,33.70
2022-09-02T14:50:12.857Z,34.80
2022-09-02T14:52:47.639Z,35.80
2022-09-02T14:55:47.043Z,36.20
2022-09-02T14:58:15.777Z,36.40
2022-09-02T15:00:46.318Z,36.90
2022-09-02T15:03:17.292Z,37.10
2022-09-02T15:05:45.738Z,37.20
2022-09-02T15:08:16.309Z,37.40
2022-09-02T15:10:45.670Z,37.70
2022-09-02T15:13:15.846Z,37.50
2022-09-02T15:15:43.959Z,37.80
2022-09-02T15:18:14.323Z,38.50
2022-09-02T15:20:42.460Z,38.70
2022-09-02T15:23:11.037Z,38.50
2022-09-02T15:25:40.650Z,38.20
2022-09-02T15:28:08.775Z,37.20
2022-09-02T15:30:37.233Z,35.40
2022-09-02T15:33:06.000Z,33.60
2022-09-02T15:35:35.634Z,32.20
2022-09-02T15:38:04.516Z,31.00
2022-09-02T15:40:33.399Z,30.20
2022-09-02T15:43:02.821Z,29.70
2022-09-02T15:45:32.310Z,29.20
2022-09-02T15:48:00.575Z,28.80
2022-09-02T15:50:34.319Z,28.40
2022-09-02T15:53:02.571Z,28.10
2022-09-02T15:55:33.146Z,27.90
2022-09-02T15:58:03.247Z,27.70
2022-09-02T16:00:31.990Z,27.50
2022-09-02T16:03:01.344Z,27.40
2022-09-02T16:05:30.634Z,27.30
2022-09-02T16:07:58.715Z,27.20
2022-09-02T16:10:26.798Z,27.10
2022-09-02T16:12:54.827Z,27.00
2022-09-02T16:15:24.236Z,26.90
2022-09-02T16:17:52.737Z,26.90
2022-09-02T16:20:22.081Z,26.80
2022-09-02T16:22:50.178Z,26.80
2022-09-02T16:25:18.720Z,26.80
2022-09-02T16:27:56.426Z,26.80
2022-09-02T16:30:26.728Z,26.80
2022-09-02T16:32:55.084Z,26.70
2022-09-02T16:35:23.231Z,26.60
2022-09-02T16:37:51.361Z,26.50
2022-09-02T16:40:21.540Z,26.50
2022-09-02T16:42:50.172Z,26.50
2022-09-02T16:45:18.257Z,26.40
2022-09-02T16:47:47.799Z,26.40
2022-09-02T16:50:15.980Z,26.30
2022-09-02T16:52:44.122Z,26.30
2022-09-02T16:55:17.748Z,26.30
2022-09-02T16:57:45.931Z,26.20
2022-09-02T17:00:15.610Z,26.20
2022-09-02T17:02:44.107Z,26.20
2022-09-02T17:05:17.260Z,26.10
2022-09-02T17:07:46.714Z,26.10
2022-09-02T17:10:14.870Z,26.10
2022-09-02T17:12:43.415Z,26.10
2022-09-02T17:15:11.808Z,26.10
2022-09-02T17:17:40.443Z,26.00
2022-09-02T17:20:09.110Z,26.00
2022-09-02T17:22:38.552Z,25.90
2022-09-02T17:25:07.567Z,25.90
2022-09-02T17:27:36.297Z,25.90
2022-09-02T17:30:05.546Z,25.80
2022-09-02T17:32:33.894Z,25.80
2022-09-02T17:35:03.097Z,25.70
2022-09-02T17:37:31.512Z,25.70
2022-09-02T17:40:01.025Z,25.60
2022-09-02T17:42:28.170Z,25.60
2022-09-02T17:44:57.446Z,25.50
2022-09-02T17:47:25.744Z,25.50
2022-09-02T17:49:53.856Z,25.50
2022-09-02T17:52:23.823Z,25.40
2022-09-02T17:54:53.560Z,25.40
2022-09-02T17:57:42.328Z,25.30
2022-09-02T18:00:13.824Z,25.30
2022-09-02T18:02:56.722Z,25.30
2022-09-02T18:05:32.496Z,25.30
2022-09-02T18:08:08.710Z,25.20
2022-09-02T18:10:38.638Z,25.20
2022-09-02T18:13:10.902Z,25.20
2022-09-02T18:15:49.541Z,25.10
2022-09-02T18:18:19.144Z,25.10
2022-09-02T18:20:54.124Z,25.00
2022-09-02T18:23:50.251Z,25.00
2022-09-02T18:26:29.724Z,24.90
2022-09-02T18:29:12.306Z,24.90
2022-09-02T18:31:47.585Z,24.90
2022-09-02T18:34:30.545Z,24.80
2022-09-02T18:37:09.798Z,24.80
2022-09-02T18:39:53.784Z,24.80
2022-09-02T18:42:32.642Z,24.80
2022-09-02T18:45:08.525Z,24.70
2022-09-02T18:47:44.906Z,24.70
2022-09-02T18:50:44.925Z,24.60
2022-09-02T18:53:12.966Z,24.60
2022-09-02T18:55:41.845Z,24.50
2022-09-02T18:58:12.945Z,24.50
2022-09-02T19:00:50.244Z,24.50
2022-09-02T19:03:18.424Z,24.40
2022-09-02T19:05:46.573Z,24.40
2022-09-02T19:08:33.277Z,24.30
2022-09-02T19:11:04.850Z,24.30
2022-09-02T19:13:44.234Z,24.20
2022-09-02T19:16:15.276Z,24.10
2022-09-02T19:18:43.360Z,24.10
2022-09-02T19:21:16.273Z,24.10
2022-09-02T19:23:45.869Z,24.10
2022-09-02T19:26:14.109Z,24.10
2022-09-02T19:28:42.975Z,24.00
2022-09-02T19:31:19.434Z,24.00
2022-09-02T19:33:53.161Z,23.90
2022-09-02T19:36:22.737Z,23.90
2022-09-02T19:38:51.051Z,23.90
2022-09-02T19:41:19.266Z,23.90
2022-09-02T19:43:47.765Z,23.80
2022-09-02T19:46:55.727Z,23.80
2022-09-02T19:49:08.093Z,23.80
2022-09-02T19:51:36.309Z,23.60
2022-09-02T19:54:04.617Z,23.60
2022-09-02T19:56:32.674Z,23.60
2022-09-02T19:59:00.868Z,23.60
2022-09-02T20:01:30.623Z,23.60
2022-09-02T20:03:58.878Z,23.60
2022-09-02T20:06:27.042Z,23.60
2022-09-02T20:08:55.085Z,23.50
2022-09-02T20:11:23.207Z,23.50
2022-09-02T20:13:51.296Z,23.40
2022-09-02T20:16:21.870Z,23.40
2022-09-02T20:18:53.037Z,23.40
2022-09-02T20:21:23.679Z,23.40
2022-09-02T20:23:53.841Z,23.40
2022-09-02T20:26:35.077Z,23.30
2022-09-02T20:29:20.261Z,23.30
2022-09-02T20:32:01.409Z,23.20
2022-09-02T20:34:46.228Z,23.20
2022-09-02T20:37:24.787Z,23.20
2022-09-02T20:40:07.886Z,23.10
2022-09-02T20:43:00.825Z,23.10
2022-09-02T20:45:37.823Z,23.10
2022-09-02T20:48:15.295Z,23.00
2022-09-02T20:50:51.705Z,22.90
2022-09-02T20:53:38.313Z,23.00
2022-09-02T20:56:18.212Z,22.90
2022-09-02T20:58:55.463Z,22.80
2022-09-02T21:01:26.739Z,22.80
2022-09-02T21:04:04.629Z,22.70
2022-09-02T21:06:39.972Z,22.70
2022-09-02T21:09:16.101Z,22.70
2022-09-02T21:11:49.836Z,22.70
2022-09-02T21:14:24.237Z,22.70
2022-09-02T21:16:58.196Z,22.60
2022-09-02T21:19:34.265Z,22.60
2022-09-02T21:22:10.590Z,22.60
2022-09-02T21:24:44.423Z,22.50
2022-09-02T21:27:19.355Z,22.50
2022-09-02T21:29:56.131Z,22.50
2022-09-02T21:32:35.536Z,22.40
2022-09-02T21:35:09.521Z,22.40
2022-09-02T21:37:41.407Z,22.30
2022-09-02T21:40:13.826Z,22.30
2022-09-02T21:42:59.884Z,22.20
2022-09-02T21:45:38.009Z,22.20
2022-09-02T21:48:21.426Z,22.10
2022-09-02T21:50:57.966Z,22.10
2022-09-02T21:53:40.975Z,22.10
2022-09-02T21:56:20.804Z,22.00
2022-09-02T21:59:06.565Z,22.00
2022-09-02T22:01:44.750Z,21.90
2022-09-02T22:04:26.245Z,21.90
2022-09-02T22:06:59.865Z,21.90
2022-09-02T22:09:31.833Z,21.80
2022-09-02T22:12:06.370Z,21.80
2022-09-02T22:14:44.153Z,21.70
2022-09-02T22:17:22.677Z,21.60
2022-09-02T22:19:57.854Z,21.50
2022-09-02T22:22:30.000Z,21.40
2022-09-02T22:24:59.630Z,21.30
2022-09-02T22:27:35.120Z,21.30
2022-09-02T22:30:08.112Z,21.30
2022-09-02T22:32:40.239Z,21.20
2022-09-02T22:35:25.018Z,21.10
2022-09-02T22:37:58.985Z,21.00
2022-09-02T22:40:35.040Z,20.90
2022-09-02T22:43:07.932Z,20.90
2022-09-02T22:45:59.835Z,20.90
2022-09-02T22:48:53.429Z,20.90
2022-09-02T22:51:46.813Z,20.90
2022-09-02T22:54:14.846Z,20.90
2022-09-02T22:56:50.849Z,20.80
2022-09-02T22:59:38.181Z,20.80
2022-09-02T23:02:16.117Z,20.70
2022-09-02T23:05:04.376Z,20.70
2022-09-02T23:07:32.669Z,20.60
2022-09-02T23:10:01.696Z,20.60
2022-09-02T23:12:39.070Z,20.50
2022-09-02T23:15:19.631Z,20.60
2022-09-02T23:17:57.342Z,20.60
2022-09-02T23:20:30.583Z,20.50
2022-09-02T23:23:15.371Z,20.40
2022-09-02T23:26:09.418Z,20.30
2022-09-02T23:28:54.730Z,20.30
2022-09-02T23:31:31.810Z,20.40
2022-09-02T23:34:12.327Z,20.40
2022-09-02T23:36:50.763Z,20.30
2022-09-02T23:39:37.404Z,20.40
2022-09-02T23:42:07.687Z,20.30
2022-09-02T23:44:37.304Z,20.30
2022-09-02T23:47:19.371Z,20.20
2022-09-02T23:49:58.189Z,20.20
2022-09-02T23:52:31.070Z,20.20
2022-09-02T23:55:10.009Z,20.20
2022-09-02T23:58:01.190Z,20.20
